sensor_id;sensor_type;location;lat;lon;timestamp;P1;durP1;ratioP1;P2;durP2;ratioP2
35757;SDS011;21879;50.110;18.900;2023-02-21T00:05:34;5.70;;;3.50;;
35757;SDS011;21879;50.110;18.900;2023-02-21T00:16:17;7.50;;;4.50;;
35757;SDS011;21879;50.110;18.900;2023-02-21T00:27:01;4.40;;;2.00;;
35757;SDS011;21879;50.110;18.900;2023-02-21T00:37:44;6.10;;;3.00;;
35757;SDS011;21879;50.110;18.900;2023-02-21T00:48:31;9.20;;;2.40;;
35757;SDS011;21879;50.110;18.900;2023-02-21T00:59:14;7.70;;;2.50;;
35757;SDS011;21879;50.110;18.900;2023-02-21T01:09:58;5.30;;;2.60;;
35757;SDS011;21879;50.110;18.900;2023-02-21T01:20:40;4.20;;;2.00;;
35757;SDS011;21879;50.110;18.900;2023-02-21T01:31:24;5.20;;;2.60;;
35757;SDS011;21879;50.110;18.900;2023-02-21T01:42:08;4.90;;;2.40;;
35757;SDS011;21879;50.110;18.900;2023-02-21T01:52:51;4.10;;;1.90;;
35757;SDS011;21879;50.110;18.900;2023-02-21T02:03:34;3.30;;;1.60;;
35757;SDS011;21879;50.110;18.900;2023-02-21T02:14:23;2.20;;;1.20;;
35757;SDS011;21879;50.110;18.900;2023-02-21T02:25:12;1.40;;;1.20;;
35757;SDS011;21879;50.110;18.900;2023-02-21T02:35:41;2.50;;;0.90;;
35757;SDS011;21879;50.110;18.900;2023-02-21T02:46:13;3.80;;;2.00;;
35757;SDS011;21879;50.110;18.900;2023-02-21T02:56:42;2.10;;;1.20;;
35757;SDS011;21879;50.110;18.900;2023-02-21T03:07:10;3.50;;;1.70;;
35757;SDS011;21879;50.110;18.900;2023-02-21T03:17:41;3.10;;;2.10;;
35757;SDS011;21879;50.110;18.900;2023-02-21T03:38:34;6.60;;;3.60;;
35757;SDS011;21879;50.110;18.900;2023-02-21T03:48:58;3.70;;;2.70;;
35757;SDS011;21879;50.110;18.900;2023-02-21T03:59:23;4.70;;;2.50;;
35757;SDS011;21879;50.110;18.900;2023-02-21T04:09:47;3.30;;;1.90;;
35757;SDS011;21879;50.110;18.900;2023-02-21T04:20:13;4.90;;;3.30;;
35757;SDS011;21879;50.110;18.900;2023-02-21T04:30:37;4.50;;;2.50;;
35757;SDS011;21879;50.110;18.900;2023-02-21T04:41:03;3.10;;;2.20;;
35757;SDS011;21879;50.110;18.900;2023-02-21T04:51:28;6.00;;;3.90;;
35757;SDS011;21879;50.110;18.900;2023-02-21T05:01:52;5.00;;;2.80;;
35757;SDS011;21879;50.110;18.900;2023-02-21T05:12:17;8.50;;;3.70;;
35757;SDS011;21879;50.110;18.900;2023-02-21T05:22:42;8.30;;;3.30;;
35757;SDS011;21879;50.110;18.900;2023-02-21T05:33:07;4.50;;;2.70;;
35757;SDS011;21879;50.110;18.900;2023-02-21T05:43:32;8.70;;;4.20;;
35757;SDS011;21879;50.110;18.900;2023-02-21T05:53:57;6.00;;;3.00;;
35757;SDS011;21879;50.110;18.900;2023-02-21T06:04:22;9.10;;;4.50;;
35757;SDS011;21879;50.110;18.900;2023-02-21T06:14:47;10.00;;;6.10;;
35757;SDS011;21879;50.110;18.900;2023-02-21T06:25:11;9.80;;;5.20;;
35757;SDS011;21879;50.110;18.900;2023-02-21T06:35:35;9.60;;;4.30;;
35757;SDS011;21879;50.110;18.900;2023-02-21T06:46:00;7.20;;;4.90;;
35757;SDS011;21879;50.110;18.900;2023-02-21T06:56:24;9.30;;;5.20;;
35757;SDS011;21879;50.110;18.900;2023-02-21T07:06:49;9.30;;;5.70;;
35757;SDS011;21879;50.110;18.900;2023-02-21T07:17:13;11.30;;;7.10;;
35757;SDS011;21879;50.110;18.900;2023-02-21T07:27:38;11.20;;;6.90;;
35757;SDS011;21879;50.110;18.900;2023-02-21T07:38:02;9.30;;;6.70;;
35757;SDS011;21879;50.110;18.900;2023-02-21T07:48:27;8.90;;;5.00;;
35757;SDS011;21879;50.110;18.900;2023-02-21T07:58:52;9.30;;;5.80;;
35757;SDS011;21879;50.110;18.900;2023-02-21T08:09:17;7.80;;;3.60;;
35757;SDS011;21879;50.110;18.900;2023-02-21T08:19:41;3.80;;;2.20;;
35757;SDS011;21879;50.110;18.900;2023-02-21T08:30:06;2.10;;;1.60;;
35757;SDS011;21879;50.110;18.900;2023-02-21T08:40:33;2.60;;;1.20;;
35757;SDS011;21879;50.110;18.900;2023-02-21T08:50:57;2.90;;;1.50;;
35757;SDS011;21879;50.110;18.900;2023-02-21T09:01:22;3.10;;;1.60;;
35757;SDS011;21879;50.110;18.900;2023-02-21T09:11:52;4.20;;;1.90;;
35757;SDS011;21879;50.110;18.900;2023-02-21T09:22:17;2.80;;;1.10;;
35757;SDS011;21879;50.110;18.900;2023-02-21T09:32:42;3.10;;;1.60;;
35757;SDS011;21879;50.110;18.900;2023-02-21T09:43:10;2.40;;;1.40;;
35757;SDS011;21879;50.110;18.900;2023-02-21T09:53:38;2.50;;;1.30;;
35757;SDS011;21879;50.110;18.900;2023-02-21T10:04:08;3.30;;;1.90;;
35757;SDS011;21879;50.110;18.900;2023-02-21T10:14:47;4.00;;;1.20;;
35757;SDS011;21879;50.110;18.900;2023-02-21T10:25:24;2.20;;;1.40;;
35757;SDS011;21879;50.110;18.900;2023-02-21T10:35:50;3.20;;;1.20;;
35757;SDS011;21879;50.110;18.900;2023-02-21T10:46:17;3.40;;;1.60;;
35757;SDS011;21879;50.110;18.900;2023-02-21T10:56:45;3.00;;;1.40;;
35757;SDS011;21879;50.110;18.900;2023-02-21T11:07:10;2.30;;;1.30;;
35757;SDS011;21879;50.110;18.900;2023-02-21T11:17:37;1.50;;;1.10;;
35757;SDS011;21879;50.110;18.900;2023-02-21T11:28:05;2.00;;;1.00;;
35757;SDS011;21879;50.110;18.900;2023-02-21T11:38:41;2.60;;;1.20;;
35757;SDS011;21879;50.110;18.900;2023-02-21T11:49:14;2.60;;;1.50;;
35757;SDS011;21879;50.110;18.900;2023-02-21T11:59:52;2.30;;;1.30;;
35757;SDS011;21879;50.110;18.900;2023-02-21T12:10:35;4.50;;;2.60;;
35757;SDS011;21879;50.110;18.900;2023-02-21T12:21:15;5.00;;;2.50;;
35757;SDS011;21879;50.110;18.900;2023-02-21T12:31:58;2.00;;;1.40;;
35757;SDS011;21879;50.110;18.900;2023-02-21T12:42:46;4.50;;;1.90;;
35757;SDS011;21879;50.110;18.900;2023-02-21T12:53:17;4.00;;;1.90;;
35757;SDS011;21879;50.110;18.900;2023-02-21T13:03:49;4.60;;;3.10;;
35757;SDS011;21879;50.110;18.900;2023-02-21T13:14:19;4.90;;;2.40;;
35757;SDS011;21879;50.110;18.900;2023-02-21T13:24:50;8.20;;;3.10;;
35757;SDS011;21879;50.110;18.900;2023-02-21T13:35:23;7.70;;;3.80;;
35757;SDS011;21879;50.110;18.900;2023-02-21T13:45:52;7.40;;;3.00;;
35757;SDS011;21879;50.110;18.900;2023-02-21T13:56:17;5.80;;;2.00;;
35757;SDS011;21879;50.110;18.900;2023-02-21T14:06:42;7.50;;;3.00;;
35757;SDS011;21879;50.110;18.900;2023-02-21T14:17:18;4.60;;;1.60;;
35757;SDS011;21879;50.110;18.900;2023-02-21T14:27:51;5.20;;;2.60;;
35757;SDS011;21879;50.110;18.900;2023-02-21T14:38:17;5.50;;;2.30;;
35757;SDS011;21879;50.110;18.900;2023-02-21T14:48:47;5.50;;;4.20;;
35757;SDS011;21879;50.110;18.900;2023-02-21T14:59:28;5.10;;;3.50;;
35757;SDS011;21879;50.110;18.900;2023-02-21T15:10:05;4.80;;;3.20;;
35757;SDS011;21879;50.110;18.900;2023-02-21T15:20:34;5.60;;;3.00;;
35757;SDS011;21879;50.110;18.900;2023-02-21T15:31:01;3.20;;;2.20;;
35757;SDS011;21879;50.110;18.900;2023-02-21T15:41:28;4.50;;;2.30;;
35757;SDS011;21879;50.110;18.900;2023-02-21T15:51:55;5.50;;;3.30;;
35757;SDS011;21879;50.110;18.900;2023-02-21T16:02:20;4.40;;;2.60;;
35757;SDS011;21879;50.110;18.900;2023-02-21T16:12:50;8.60;;;4.00;;
35757;SDS011;21879;50.110;18.900;2023-02-21T16:23:23;8.40;;;5.10;;
35757;SDS011;21879;50.110;18.900;2023-02-21T16:33:51;7.00;;;4.20;;
35757;SDS011;21879;50.110;18.900;2023-02-21T16:44:16;7.20;;;3.30;;
35757;SDS011;21879;50.110;18.900;2023-02-21T16:54:40;5.50;;;3.20;;
35757;SDS011;21879;50.110;18.900;2023-02-21T17:05:05;6.60;;;3.90;;
35757;SDS011;21879;50.110;18.900;2023-02-21T17:15:29;9.50;;;5.30;;
35757;SDS011;21879;50.110;18.900;2023-02-21T17:25:54;7.50;;;4.10;;
35757;SDS011;21879;50.110;18.900;2023-02-21T17:36:19;6.30;;;3.70;;
35757;SDS011;21879;50.110;18.900;2023-02-21T17:46:45;7.40;;;3.90;;
35757;SDS011;21879;50.110;18.900;2023-02-21T17:57:10;8.90;;;4.60;;
35757;SDS011;21879;50.110;18.900;2023-02-21T18:07:34;22.40;;;18.60;;
35757;SDS011;21879;50.110;18.900;2023-02-21T18:17:59;7.20;;;3.90;;
35757;SDS011;21879;50.110;18.900;2023-02-21T18:28:29;7.10;;;4.20;;
35757;SDS011;21879;50.110;18.900;2023-02-21T18:38:54;8.00;;;3.60;;
35757;SDS011;21879;50.110;18.900;2023-02-21T18:49:18;9.10;;;5.20;;
35757;SDS011;21879;50.110;18.900;2023-02-21T18:59:43;9.40;;;4.90;;
35757;SDS011;21879;50.110;18.900;2023-02-21T19:10:08;7.80;;;4.70;;
35757;SDS011;21879;50.110;18.900;2023-02-21T19:20:33;8.90;;;5.40;;
35757;SDS011;21879;50.110;18.900;2023-02-21T19:31:01;10.30;;;7.10;;
35757;SDS011;21879;50.110;18.900;2023-02-21T19:41:26;12.30;;;4.30;;
35757;SDS011;21879;50.110;18.900;2023-02-21T19:51:51;12.70;;;5.40;;
35757;SDS011;21879;50.110;18.900;2023-02-21T20:02:16;14.00;;;6.40;;
35757;SDS011;21879;50.110;18.900;2023-02-21T20:12:41;13.70;;;6.10;;
35757;SDS011;21879;50.110;18.900;2023-02-21T20:23:05;16.80;;;8.00;;
35757;SDS011;21879;50.110;18.900;2023-02-21T20:33:32;21.60;;;9.80;;
35757;SDS011;21879;50.110;18.900;2023-02-21T20:43:59;15.10;;;9.50;;
35757;SDS011;21879;50.110;18.900;2023-02-21T20:54:23;15.70;;;6.70;;
35757;SDS011;21879;50.110;18.900;2023-02-21T21:04:47;14.80;;;5.60;;
35757;SDS011;21879;50.110;18.900;2023-02-21T21:15:12;14.00;;;7.60;;
35757;SDS011;21879;50.110;18.900;2023-02-21T21:25:36;24.90;;;8.90;;
35757;SDS011;21879;50.110;18.900;2023-02-21T21:36:01;19.60;;;9.20;;
35757;SDS011;21879;50.110;18.900;2023-02-21T21:46:25;49.30;;;25.10;;
35757;SDS011;21879;50.110;18.900;2023-02-21T21:56:50;40.80;;;23.70;;
35757;SDS011;21879;50.110;18.900;2023-02-21T22:07:16;63.70;;;36.70;;
35757;SDS011;21879;50.110;18.900;2023-02-21T22:17:41;62.40;;;37.20;;
35757;SDS011;21879;50.110;18.900;2023-02-21T22:28:06;40.80;;;24.60;;
35757;SDS011;21879;50.110;18.900;2023-02-21T22:38:34;40.00;;;21.40;;
35757;SDS011;21879;50.110;18.900;2023-02-21T22:49:00;32.60;;;20.30;;
35757;SDS011;21879;50.110;18.900;2023-02-21T22:59:24;41.70;;;23.60;;
35757;SDS011;21879;50.110;18.900;2023-02-21T23:09:48;28.10;;;15.90;;
35757;SDS011;21879;50.110;18.900;2023-02-21T23:20:14;29.60;;;18.00;;
35757;SDS011;21879;50.110;18.900;2023-02-21T23:30:44;32.60;;;16.30;;
35757;SDS011;21879;50.110;18.900;2023-02-21T23:41:10;51.20;;;28.70;;
35757;SDS011;21879;50.110;18.900;2023-02-21T23:51:38;64.50;;;37.10;;
